createdAt,value
2019-01-20T00:02:20.298Z,29.90
2019-01-20T00:04:46.851Z,34.10
2019-01-20T00:07:13.115Z,36.03
2019-01-20T00:09:39.479Z,35.10
2019-01-20T00:12:05.841Z,30.17
2019-01-20T00:14:32.101Z,32.93
2019-01-20T00:16:58.376Z,31.47
2019-01-20T00:19:24.629Z,30.53
2019-01-20T00:21:51.470Z,27.37
2019-01-20T00:24:18.204Z,25.83
2019-01-20T00:26:44.859Z,27.53
2019-01-20T00:29:11.318Z,30.00
2019-01-20T00:31:37.583Z,30.37
2019-01-20T00:34:04.175Z,32.83
2019-01-20T00:36:30.427Z,31.80
2019-01-20T00:38:56.671Z,32.00
2019-01-20T00:41:24.151Z,26.67
2019-01-20T00:43:50.790Z,28.10
2019-01-20T00:46:17.070Z,31.47
2019-01-20T00:48:43.354Z,32.93
2019-01-20T00:51:09.916Z,32.43
2019-01-20T00:53:36.154Z,33.60
2019-01-20T00:56:03.039Z,30.93
2019-01-20T00:58:29.303Z,37.10
2019-01-20T01:00:55.770Z,34.37
2019-01-20T01:03:22.347Z,33.90
2019-01-20T01:05:48.600Z,38.13
2019-01-20T01:08:14.947Z,37.93
2019-01-20T01:10:41.221Z,32.73
2019-01-20T01:13:07.979Z,33.53
2019-01-20T01:15:34.370Z,32.90
2019-01-20T01:18:00.850Z,33.40
2019-01-20T01:20:27.194Z,36.63
2019-01-20T01:22:53.475Z,40.97
2019-01-20T01:25:19.819Z,38.30
2019-01-20T01:27:46.292Z,45.27
2019-01-20T01:30:17.732Z,40.20
2019-01-20T01:32:44.179Z,39.07
2019-01-20T01:35:10.838Z,40.90
2019-01-20T01:37:37.122Z,42.57
2019-01-20T01:40:07.190Z,40.97
2019-01-20T01:42:33.875Z,37.63
2019-01-20T01:45:00.492Z,34.67
2019-01-20T01:47:27.130Z,41.20
2019-01-20T01:49:53.409Z,40.37
2019-01-20T01:52:19.656Z,45.13
2019-01-20T01:54:45.943Z,31.07
2019-01-20T01:57:12.199Z,38.60
2019-01-20T01:59:38.459Z,41.60
2019-01-20T02:02:04.942Z,33.73
2019-01-20T02:04:31.639Z,33.93
2019-01-20T02:06:57.992Z,37.10
2019-01-20T02:09:24.364Z,38.17
2019-01-20T02:11:50.743Z,32.17
2019-01-20T02:14:17.282Z,32.73
2019-01-20T02:16:43.551Z,36.27
2019-01-20T02:19:09.818Z,36.67
2019-01-20T02:21:36.077Z,39.07
2019-01-20T02:24:02.467Z,30.37
2019-01-20T02:26:28.744Z,35.57
2019-01-20T02:28:55.006Z,39.53
2019-01-20T02:31:21.268Z,37.40
2019-01-20T02:33:47.527Z,37.47
2019-01-20T02:36:13.885Z,27.70
2019-01-20T02:38:40.385Z,41.93
2019-01-20T02:41:06.632Z,32.07
2019-01-20T02:43:32.907Z,32.83
2019-01-20T02:45:59.563Z,37.00
2019-01-20T02:48:25.899Z,37.23
2019-01-20T02:50:52.201Z,38.20
2019-01-20T02:53:18.739Z,40.90
2019-01-20T02:55:44.991Z,36.03
2019-01-20T02:58:11.275Z,38.87
2019-01-20T03:00:37.659Z,38.17
2019-01-20T03:03:04.218Z,35.33
2019-01-20T03:05:30.692Z,40.97
2019-01-20T03:07:56.956Z,40.07
2019-01-20T03:10:23.235Z,39.90
2019-01-20T03:12:49.499Z,40.30
2019-01-20T03:15:15.948Z,36.20
2019-01-20T03:17:42.335Z,33.37
2019-01-20T03:20:12.380Z,36.90
2019-01-20T03:22:38.791Z,35.80
2019-01-20T03:25:08.854Z,39.37
2019-01-20T03:27:35.097Z,40.10
2019-01-20T03:30:02.190Z,38.77
2019-01-20T03:32:28.436Z,34.00
2019-01-20T03:34:54.789Z,38.73
2019-01-20T03:37:21.076Z,40.20
2019-01-20T03:39:47.708Z,37.67
2019-01-20T03:42:14.200Z,36.77
2019-01-20T03:44:40.462Z,32.23
2019-01-20T03:47:06.716Z,39.63
2019-01-20T03:49:32.992Z,40.47
2019-01-20T03:51:59.251Z,32.10
2019-01-20T03:54:25.800Z,43.10
2019-01-20T03:56:52.104Z,32.77
2019-01-20T03:59:18.856Z,40.00
2019-01-20T04:01:45.272Z,39.37
2019-01-20T04:04:11.507Z,33.57
2019-01-20T04:06:46.315Z,38.27
2019-01-20T04:09:12.663Z,42.27
2019-01-20T04:11:39.239Z,39.37
2019-01-20T04:14:05.947Z,38.37
2019-01-20T04:16:32.473Z,35.87
2019-01-20T04:18:58.742Z,35.80
2019-01-20T04:21:25.338Z,38.40
2019-01-20T04:23:51.585Z,37.27
2019-01-20T04:26:17.845Z,42.30
2019-01-20T04:28:44.314Z,37.97
2019-01-20T04:31:10.571Z,37.40
2019-01-20T04:33:36.794Z,40.77
2019-01-20T04:36:03.623Z,43.90
2019-01-20T04:38:30.274Z,43.20
2019-01-20T04:40:56.515Z,38.20
2019-01-20T04:43:23.138Z,41.93
2019-01-20T04:45:49.668Z,41.07
2019-01-20T04:48:15.893Z,39.63
2019-01-20T04:50:42.285Z,46.57
2019-01-20T04:53:08.756Z,36.17
2019-01-20T04:55:35.382Z,39.00
2019-01-20T04:58:01.744Z,40.07
2019-01-20T05:00:28.449Z,42.60
2019-01-20T05:02:54.724Z,39.17
2019-01-20T05:05:21.309Z,42.07
2019-01-20T05:07:47.952Z,42.70
2019-01-20T05:14:34.894Z,45.73
2019-01-20T05:17:01.180Z,40.73
2019-01-20T05:19:27.485Z,42.90
2019-01-20T05:21:53.770Z,43.40
2019-01-20T05:25:11.816Z,49.27
2019-01-20T05:27:38.315Z,42.90
2019-01-20T05:30:14.019Z,41.63
2019-01-20T05:32:40.287Z,42.53
2019-01-20T05:35:08.165Z,49.77
2019-01-20T05:37:34.411Z,51.47
2019-01-20T05:40:00.675Z,46.80
2019-01-20T05:42:26.931Z,44.13
2019-01-20T05:44:53.530Z,47.58
2019-01-20T05:47:19.815Z,49.70
2019-01-20T05:49:46.068Z,45.03
2019-01-20T05:52:12.450Z,51.43
2019-01-20T05:54:38.774Z,43.60
2019-01-20T05:57:05.072Z,47.20
2019-01-20T05:59:31.719Z,43.53
2019-01-20T06:01:57.988Z,47.37
2019-01-20T06:04:24.275Z,43.43
2019-01-20T06:06:50.530Z,43.50
2019-01-20T06:09:16.823Z,45.60
2019-01-20T06:11:43.090Z,51.70
2019-01-20T06:14:09.344Z,48.17
2019-01-20T06:16:35.608Z,47.20
2019-01-20T06:19:01.903Z,51.90
2019-01-20T06:21:28.148Z,54.80
2019-01-20T06:23:54.415Z,47.97
2019-01-20T06:26:20.691Z,42.77
2019-01-20T06:28:46.982Z,46.70
2019-01-20T06:31:13.327Z,41.53
2019-01-20T06:33:40.010Z,42.50
2019-01-20T06:36:06.279Z,44.80
2019-01-20T06:38:32.567Z,52.20
2019-01-20T06:40:59.098Z,40.60
2019-01-20T06:43:25.366Z,42.80
2019-01-20T06:45:51.647Z,51.97
2019-01-20T06:48:17.998Z,53.13
2019-01-20T06:50:44.273Z,51.03
2019-01-20T06:53:10.528Z,49.70
2019-01-20T06:55:36.796Z,51.10
2019-01-20T06:58:03.503Z,46.13
2019-01-20T07:00:30.142Z,52.37
2019-01-20T07:02:56.411Z,47.23
2019-01-20T07:05:22.870Z,48.97
2019-01-20T07:07:49.632Z,52.00
2019-01-20T07:10:17.104Z,44.03
2019-01-20T07:12:43.479Z,47.10
2019-01-20T07:15:12.530Z,61.87
2019-01-20T07:17:39.070Z,50.97
2019-01-20T07:20:08.235Z,46.27
2019-01-20T07:22:34.698Z,47.40
2019-01-20T07:25:01.365Z,41.27
2019-01-20T07:27:27.584Z,54.27
2019-01-20T07:29:53.876Z,54.07
2019-01-20T07:32:20.123Z,56.57
2019-01-20T07:34:46.378Z,46.67
2019-01-20T07:37:12.660Z,47.23
2019-01-20T07:39:39.203Z,47.43
2019-01-20T07:42:05.487Z,46.57
2019-01-20T07:44:31.742Z,47.20
2019-01-20T07:46:58.011Z,49.23
2019-01-20T07:49:24.275Z,49.30
2019-01-20T07:51:50.543Z,51.87
2019-01-20T07:54:16.803Z,58.23
2019-01-20T07:56:43.090Z,49.93
2019-01-20T07:59:09.330Z,53.17
2019-01-20T08:01:35.597Z,54.70
2019-01-20T08:04:02.091Z,53.10
2019-01-20T08:06:28.340Z,59.67
2019-01-20T08:08:54.602Z,63.53
2019-01-20T08:11:20.883Z,61.13
2019-01-20T08:13:47.132Z,55.30
2019-01-20T08:16:13.395Z,62.13
2019-01-20T08:18:39.659Z,92.00
2019-01-20T08:21:06.031Z,98.37
2019-01-20T08:23:32.306Z,88.13
2019-01-20T08:25:58.553Z,89.17
2019-01-20T08:28:24.851Z,79.80
2019-01-20T08:30:51.098Z,71.37
2019-01-20T08:33:17.339Z,74.67
2019-01-20T08:35:43.618Z,67.85
2019-01-20T08:38:09.862Z,60.37
2019-01-20T08:40:36.146Z,61.30
2019-01-20T08:43:02.721Z,65.67
2019-01-20T08:45:35.807Z,57.00
2019-01-20T08:48:08.807Z,61.27
2019-01-20T08:50:35.052Z,62.10
2019-01-20T08:53:01.338Z,58.50
2019-01-20T08:55:27.606Z,47.83
2019-01-20T08:57:53.959Z,59.40
2019-01-20T09:00:20.334Z,55.87
2019-01-20T09:02:46.839Z,57.57
2019-01-20T09:05:13.383Z,61.87
2019-01-20T09:07:39.646Z,59.00
2019-01-20T09:10:09.715Z,56.40
2019-01-20T09:12:37.168Z,56.03
2019-01-20T09:15:06.571Z,60.63
2019-01-20T09:17:33.164Z,60.23
2019-01-20T09:19:59.451Z,61.40
2019-01-20T09:22:26.040Z,60.63
2019-01-20T09:24:52.399Z,73.85
2019-01-20T09:27:19.011Z,63.90
2019-01-20T09:29:45.274Z,67.33
2019-01-20T09:32:11.642Z,59.23
2019-01-20T09:34:37.901Z,63.90
2019-01-20T09:37:04.267Z,63.13
2019-01-20T09:39:30.526Z,66.87
2019-01-20T09:41:56.811Z,65.08
2019-01-20T09:44:23.060Z,69.93
2019-01-20T09:46:49.318Z,69.77
2019-01-20T09:49:15.699Z,64.07
2019-01-20T09:51:42.053Z,62.07
2019-01-20T09:54:08.434Z,70.83
2019-01-20T09:56:34.680Z,67.73
2019-01-20T09:59:00.974Z,63.97
2019-01-20T10:01:27.234Z,61.97
2019-01-20T10:03:53.833Z,60.47
2019-01-20T10:06:20.116Z,66.83
2019-01-20T10:08:46.371Z,58.83
2019-01-20T10:11:12.746Z,60.97
2019-01-20T10:13:39.002Z,61.27
2019-01-20T10:16:05.355Z,59.77
2019-01-20T10:18:31.634Z,61.80
2019-01-20T10:20:58.002Z,49.07
2019-01-20T10:23:24.248Z,67.27
2019-01-20T10:25:50.626Z,56.87
2019-01-20T10:28:16.868Z,50.87
2019-01-20T10:30:43.340Z,53.00
2019-01-20T10:33:10.011Z,53.43
2019-01-20T10:35:38.257Z,57.87
2019-01-20T10:38:06.829Z,56.13
2019-01-20T10:40:33.393Z,54.00
2019-01-20T10:42:59.734Z,54.70
2019-01-20T10:45:26.229Z,54.77
2019-01-20T10:47:52.506Z,52.93
2019-01-20T10:50:18.951Z,54.10
2019-01-20T10:52:45.758Z,58.40
2019-01-20T10:55:12.215Z,55.00
2019-01-20T10:57:38.590Z,56.33
2019-01-20T11:00:14.835Z,51.03
2019-01-20T11:02:41.088Z,59.40
2019-01-20T11:05:07.746Z,51.23
2019-01-20T11:07:34.111Z,55.73
2019-01-20T11:10:00.370Z,52.23
2019-01-20T11:12:26.743Z,55.05
2019-01-20T11:14:52.988Z,56.17
2019-01-20T11:17:19.371Z,41.47
2019-01-20T11:19:45.627Z,52.50
2019-01-20T11:22:11.899Z,55.60
2019-01-20T11:24:38.476Z,52.97
2019-01-20T11:27:04.759Z,56.20
2019-01-20T11:29:31.026Z,53.07
2019-01-20T11:31:57.271Z,57.03
2019-01-20T11:34:23.542Z,45.63
2019-01-20T11:36:49.786Z,50.70
2019-01-20T11:39:16.039Z,47.43
2019-01-20T11:41:42.323Z,49.90
2019-01-20T11:44:08.589Z,64.83
2019-01-20T11:46:34.858Z,54.83
2019-01-20T11:49:01.124Z,53.60
2019-01-20T11:51:27.372Z,53.13
2019-01-20T11:53:53.767Z,56.07
2019-01-20T11:56:20.012Z,49.53
2019-01-20T11:58:46.246Z,48.63
2019-01-20T12:01:12.530Z,45.60
2019-01-20T12:03:38.777Z,52.73
2019-01-20T12:06:05.255Z,49.97
2019-01-20T12:08:31.522Z,41.00
2019-01-20T12:10:57.767Z,45.20
2019-01-20T12:13:26.499Z,41.00
2019-01-20T12:15:52.883Z,42.23
2019-01-20T12:18:19.168Z,44.13
2019-01-20T12:20:45.427Z,39.60
2019-01-20T12:23:12.019Z,48.50
2019-01-20T12:25:38.397Z,46.23
2019-01-20T12:28:04.662Z,45.43
2019-01-20T12:30:34.028Z,48.50
2019-01-20T12:33:02.202Z,49.93
2019-01-20T12:35:28.476Z,38.63
2019-01-20T12:37:55.034Z,40.73
2019-01-20T12:40:24.294Z,37.50
2019-01-20T12:42:50.765Z,52.43
2019-01-20T12:45:17.132Z,39.90
2019-01-20T12:47:43.482Z,49.77
2019-01-20T12:50:13.251Z,47.57
2019-01-20T12:52:39.506Z,41.00
2019-01-20T12:55:06.647Z,40.27
2019-01-20T12:57:33.117Z,32.30
2019-01-20T12:59:59.686Z,41.60
2019-01-20T13:02:25.951Z,26.97
2019-01-20T13:04:56.300Z,24.00
2019-01-20T13:07:20.279Z,33.27
2019-01-20T13:09:46.556Z,39.23
2019-01-20T13:12:12.922Z,31.07
2019-01-20T13:14:39.411Z,62.70
2019-01-20T13:17:05.831Z,38.33
2019-01-20T13:19:32.186Z,35.83
2019-01-20T13:21:58.552Z,36.30
2019-01-20T13:24:24.839Z,40.73
2019-01-20T13:26:51.095Z,27.50
2019-01-20T13:29:17.331Z,31.23
2019-01-20T13:31:43.610Z,27.47
2019-01-20T13:34:09.983Z,29.90
2019-01-20T13:36:37.234Z,24.50
2019-01-20T13:39:07.119Z,29.77
2019-01-20T13:41:33.372Z,38.25
2019-01-20T13:43:59.626Z,36.97
2019-01-20T13:46:26.016Z,34.50
2019-01-20T13:48:52.368Z,55.37
2019-01-20T13:51:18.730Z,42.33
2019-01-20T13:53:45.033Z,40.33
2019-01-20T13:56:11.239Z,42.57
2019-01-20T13:58:37.498Z,50.13
2019-01-20T14:01:03.858Z,37.13
2019-01-20T14:03:30.133Z,38.37
2019-01-20T14:05:56.410Z,36.43
2019-01-20T14:08:22.660Z,68.53
2019-01-20T14:10:48.947Z,38.27
2019-01-20T14:13:15.200Z,56.60
2019-01-20T14:15:41.542Z,44.37
2019-01-20T14:18:07.930Z,43.60
2019-01-20T14:20:34.576Z,35.70
2019-01-20T14:23:00.843Z,40.37
2019-01-20T14:25:28.434Z,35.40
2019-01-20T14:27:54.774Z,33.90
2019-01-20T14:30:24.034Z,34.30
2019-01-20T14:32:50.296Z,46.43
2019-01-20T14:35:16.756Z,42.27
2019-01-20T14:37:43.155Z,55.87
2019-01-20T14:40:15.034Z,41.70
2019-01-20T14:42:41.294Z,43.70
2019-01-20T14:45:10.983Z,38.10
2019-01-20T14:47:37.424Z,39.63
2019-01-20T14:50:07.312Z,40.97
2019-01-20T14:52:33.962Z,45.77
2019-01-20T14:55:00.231Z,41.53
2019-01-20T14:57:26.485Z,35.90
2019-01-20T14:59:52.843Z,47.13
2019-01-20T15:02:19.119Z,42.53
2019-01-20T15:04:45.374Z,44.23
2019-01-20T15:07:11.677Z,36.07
2019-01-20T15:09:37.930Z,38.17
2019-01-20T15:12:04.382Z,36.80
2019-01-20T15:14:32.418Z,34.07
2019-01-20T15:16:58.725Z,48.37
2019-01-20T15:19:25.064Z,45.10
2019-01-20T15:21:51.342Z,42.50
2019-01-20T15:24:17.607Z,42.43
2019-01-20T15:26:43.875Z,49.67
2019-01-20T15:29:10.555Z,44.33
2019-01-20T15:31:36.824Z,47.47
2019-01-20T15:34:03.467Z,41.63
2019-01-20T15:36:29.726Z,48.87
2019-01-20T15:38:55.994Z,40.60
2019-01-20T15:41:22.612Z,43.50
2019-01-20T15:43:48.981Z,48.17
2019-01-20T15:46:15.231Z,44.97
2019-01-20T15:48:41.506Z,44.80
2019-01-20T15:51:07.768Z,55.97
2019-01-20T15:53:34.016Z,50.83
2019-01-20T15:56:00.294Z,53.30
2019-01-20T15:58:26.820Z,49.73
2019-01-20T16:00:53.224Z,59.73
2019-01-20T16:03:19.483Z,63.63
2019-01-20T16:05:45.719Z,49.47
2019-01-20T16:08:12.339Z,59.00
2019-01-20T16:10:38.580Z,54.57
2019-01-20T16:13:04.875Z,61.20
2019-01-20T16:15:32.754Z,65.17
2019-01-20T16:17:59.200Z,57.50
2019-01-20T16:20:26.283Z,58.63
2019-01-20T16:22:52.646Z,57.27
2019-01-20T16:25:22.719Z,53.67
2019-01-20T16:27:49.098Z,61.03
2019-01-20T16:30:18.542Z,54.07
2019-01-20T16:32:45.244Z,53.70
2019-01-20T16:35:12.635Z,53.37
2019-01-20T16:37:38.916Z,54.57
2019-01-20T16:40:08.861Z,65.70
2019-01-20T16:42:35.123Z,57.93
2019-01-20T16:45:01.600Z,58.07
2019-01-20T16:47:27.829Z,72.37
2019-01-20T16:49:54.482Z,66.37
2019-01-20T16:52:21.219Z,53.60
2019-01-20T16:54:47.479Z,54.27
2019-01-20T16:57:13.742Z,52.00
2019-01-20T16:59:40.111Z,62.43
2019-01-20T17:02:06.559Z,65.27
2019-01-20T17:04:32.843Z,58.80
2019-01-20T17:06:59.107Z,61.30
2019-01-20T17:09:25.383Z,62.50
2019-01-20T17:11:51.646Z,63.77
2019-01-20T17:14:17.883Z,61.17
2019-01-20T17:16:44.167Z,72.47
2019-01-20T17:19:17.225Z,77.60
2019-01-20T17:21:38.471Z,80.53
2019-01-20T17:24:04.952Z,73.03
2019-01-20T17:26:32.067Z,81.08
2019-01-20T17:28:58.325Z,81.32
2019-01-20T17:31:24.610Z,75.83
2019-01-20T17:33:50.982Z,74.30
2019-01-20T17:36:17.233Z,67.37
2019-01-20T17:38:43.479Z,76.17
2019-01-20T17:41:09.827Z,64.60
2019-01-20T17:43:36.119Z,68.80
2019-01-20T17:46:03.071Z,68.17
2019-01-20T17:48:29.359Z,58.67
2019-01-20T17:50:55.633Z,60.33
2019-01-20T17:53:21.903Z,56.60
2019-01-20T17:55:48.275Z,57.97
2019-01-20T17:58:14.531Z,62.10
2019-01-20T18:00:48.451Z,57.73
2019-01-20T18:03:15.017Z,52.97
2019-01-20T18:05:41.779Z,55.83
2019-01-20T18:08:08.138Z,58.93
2019-01-20T18:10:34.500Z,48.60
2019-01-20T18:13:00.860Z,56.50
2019-01-20T18:15:27.214Z,51.37
2019-01-20T18:17:53.671Z,63.38
2019-01-20T18:20:23.053Z,53.37
2019-01-20T18:22:49.552Z,56.63
2019-01-20T18:25:17.116Z,58.90
2019-01-20T18:27:43.595Z,59.37
2019-01-20T18:30:21.646Z,49.23
2019-01-20T18:32:47.883Z,53.07
2019-01-20T18:35:14.603Z,54.37
2019-01-20T18:37:40.976Z,49.03
2019-01-20T18:40:18.743Z,60.07
2019-01-20T18:42:45.528Z,61.07
2019-01-20T18:45:16.699Z,59.80
2019-01-20T18:47:43.074Z,56.37
2019-01-20T18:50:15.431Z,59.60
2019-01-20T18:52:42.140Z,73.13
2019-01-20T18:55:11.006Z,75.87
2019-01-20T18:57:37.267Z,66.03
2019-01-20T19:00:21.723Z,70.20
2019-01-20T19:02:48.015Z,103.23
2019-01-20T19:05:15.957Z,72.60
2019-01-20T19:07:42.562Z,74.03
2019-01-20T19:10:14.912Z,92.43
2019-01-20T19:12:41.351Z,95.40
2019-01-20T19:15:10.829Z,106.93
2019-01-20T19:17:37.199Z,90.13
2019-01-20T19:20:12.924Z,105.60
2019-01-20T19:22:39.499Z,106.63
2019-01-20T19:25:05.961Z,142.90
2019-01-20T19:27:32.463Z,90.90
2019-01-20T19:29:58.743Z,100.87
2019-01-20T19:32:25.007Z,94.80
2019-01-20T19:34:51.303Z,120.40
2019-01-20T19:37:17.576Z,126.93
2019-01-20T19:39:50.381Z,103.97
2019-01-20T19:42:11.901Z,101.00
2019-01-20T19:44:38.155Z,103.67
2019-01-20T19:47:04.418Z,118.90
2019-01-20T19:49:30.716Z,122.63
2019-01-20T19:51:56.960Z,118.40
2019-01-20T19:54:23.230Z,80.10
2019-01-20T19:56:49.501Z,90.23
2019-01-20T19:59:15.764Z,101.20
2019-01-20T20:01:42.043Z,98.97
2019-01-20T20:04:08.316Z,102.13
2019-01-20T20:06:34.592Z,141.70
2019-01-20T20:09:00.866Z,96.73
2019-01-20T20:11:27.111Z,105.80
2019-01-20T20:13:53.403Z,85.70
2019-01-20T20:16:23.408Z,73.07
2019-01-20T20:18:47.843Z,63.60
2019-01-20T20:21:14.101Z,149.97
2019-01-20T20:23:40.368Z,145.73
2019-01-20T20:26:06.641Z,88.60
2019-01-20T20:28:32.911Z,91.47
2019-01-20T20:30:59.185Z,97.03
2019-01-20T20:33:25.463Z,117.47
2019-01-20T20:35:51.707Z,153.97
2019-01-20T20:38:18.071Z,93.07
2019-01-20T20:40:44.442Z,73.30
2019-01-20T20:43:10.712Z,100.17
2019-01-20T20:45:37.078Z,87.53
2019-01-20T20:48:03.536Z,135.87
2019-01-20T20:50:29.798Z,91.03
2019-01-20T20:52:56.067Z,70.67
2019-01-20T20:55:22.744Z,92.30
2019-01-20T20:57:49.307Z,70.57
2019-01-20T21:00:24.712Z,64.70
2019-01-20T21:02:51.161Z,69.70
2019-01-20T21:05:17.441Z,66.07
2019-01-20T21:07:44.239Z,68.87
2019-01-20T21:10:15.668Z,64.67
2019-01-20T21:12:41.938Z,60.70
2019-01-20T21:15:11.288Z,54.40
2019-01-20T21:17:37.572Z,52.47
2019-01-20T21:20:10.071Z,89.60
2019-01-20T21:22:36.640Z,77.07
2019-01-20T21:25:06.111Z,74.60
2019-01-20T21:27:32.395Z,60.13
2019-01-20T21:29:58.664Z,66.73
2019-01-20T21:32:24.930Z,70.03
2019-01-20T21:34:51.176Z,62.80
2019-01-20T21:37:17.787Z,98.83
2019-01-20T21:39:44.334Z,80.23
2019-01-20T21:42:10.703Z,67.37
2019-01-20T21:44:36.977Z,78.87
2019-01-20T21:47:03.464Z,84.17
2019-01-20T21:49:29.712Z,82.63
2019-01-20T21:51:55.974Z,61.63
2019-01-20T21:54:22.254Z,73.40
2019-01-20T21:56:48.523Z,100.37
2019-01-20T21:59:14.793Z,85.17
2019-01-20T22:01:41.051Z,71.83
2019-01-20T22:04:07.325Z,76.90
2019-01-20T22:06:33.671Z,68.93
2019-01-20T22:08:59.970Z,85.47
2019-01-20T22:11:26.230Z,102.30
2019-01-20T22:13:52.516Z,83.23
2019-01-20T22:16:18.874Z,73.27
2019-01-20T22:18:45.111Z,73.27
2019-01-20T22:21:11.390Z,70.17
2019-01-20T22:23:37.636Z,62.37
2019-01-20T22:26:04.008Z,65.50
2019-01-20T22:28:30.275Z,70.10
2019-01-20T22:30:56.547Z,60.63
2019-01-20T22:33:22.805Z,63.17
2019-01-20T22:35:49.078Z,65.80
2019-01-20T22:38:15.336Z,56.77
2019-01-20T22:40:41.618Z,71.93
2019-01-20T22:43:07.887Z,68.70
2019-01-20T22:45:34.131Z,76.50
2019-01-20T22:48:00.430Z,57.97
2019-01-20T22:50:26.801Z,75.27
2019-01-20T22:52:53.259Z,76.60
2019-01-20T22:55:19.535Z,96.63
2019-01-20T22:57:45.998Z,83.23
2019-01-20T23:00:25.822Z,71.73
2019-01-20T23:02:52.184Z,116.60
2019-01-20T23:05:18.560Z,66.27
2019-01-20T23:07:44.832Z,79.97
2019-01-20T23:10:11.079Z,81.97
2019-01-20T23:12:37.359Z,91.30
2019-01-20T23:15:07.236Z,92.53
2019-01-20T23:17:33.512Z,86.57
2019-01-20T23:19:59.787Z,86.17
2019-01-20T23:22:26.028Z,83.67
2019-01-20T23:24:52.687Z,85.17
2019-01-20T23:27:18.930Z,64.23
2019-01-20T23:29:45.292Z,71.70
2019-01-20T23:32:11.624Z,74.53
2019-01-20T23:34:37.825Z,57.83
2019-01-20T23:37:04.206Z,75.23
2019-01-20T23:39:30.466Z,64.83
2019-01-20T23:41:56.711Z,101.50
2019-01-20T23:44:23.308Z,85.57
2019-01-20T23:46:49.583Z,73.13
2019-01-20T23:49:15.836Z,73.00
2019-01-20T23:51:42.094Z,65.60
2019-01-20T23:54:08.392Z,76.47
2019-01-20T23:56:34.644Z,65.87
2019-01-20T23:59:00.903Z,65.27
